Time;durP1;ratioP1;P1;durP2;ratioP2;P2;SDS_P1;SDS_P2;PMS_P1;PMS_P2;Temp;Humidity;BMP_temperature;BMP_pressure;BME280_temperature;BME280_humidity;BME280_pressure;Samples;Min_cycle;Max_cycle;Signal;HPM_P1;HPM_P2
2022/12/14 00:02:39;;;;;;;;;;;;;;;7.04;52.37;100078.78;4997548;28;19922;-78
2022/12/14 00:05:23;;;;;;;;;;;;;;;7.01;53.37;100071.28;4993722;28;19917;-78
2022/12/14 00:08:08;;;;;;;;;;;;;;;7.05;53.77;100074.97;4972224;28;19918;-78
2022/12/14 00:10:53;;;;;;;;;;;;;;;7.09;52.29;100064.34;4984364;28;19921;-78
2022/12/14 00:13:37;;;;;;;;;;;;;;;7.15;52.31;100063.91;4988565;28;20306;-76
2022/12/14 00:16:22;;;;;;;;;;;;;;;7.30;51.59;100060.84;4998600;28;19926;-78
2022/12/14 00:19:11;;;;;;;;;;;;;;;7.18;51.90;100067.91;4993275;28;19917;-78
2022/12/14 00:21:56;;;;;;;;;;;;;;;7.22;52.27;100064.25;4980168;28;20375;-77
2022/12/14 00:24:40;;;;;;;;;;;;;;;7.14;53.57;100067.72;4977623;28;19937;-77
2022/12/14 00:27:25;;;;;;;;;;;;;;;7.14;54.79;100078.53;4980401;28;19918;-77
2022/12/14 00:30:10;;;;;;;;;;;;;;;7.07;56.09;100074.66;5001225;28;19917;-79
2022/12/14 00:32:55;;;;;;;;;;;;;;;7.05;57.73;100076.88;4980947;28;19917;-76
2022/12/14 00:35:40;;;;;;;;;;;;;;;7.15;57.44;100085.56;4990514;28;19917;-77
2022/12/14 00:38:24;;;;;;;;;;;;;;;7.15;56.19;100082.03;5001304;28;19917;-76
2022/12/14 00:41:09;;;;;;;;;;;;;;;7.19;56.28;100077.63;4998600;28;20394;-76
2022/12/14 00:43:54;;;;;;;;;;;;;;;7.13;56.05;100073.44;4995287;28;20375;-77
2022/12/14 00:46:38;;;;;;;;;;;;;;;7.08;55.53;100077.06;4980317;28;20334;-77
2022/12/14 00:49:22;;;;;;;;;;;;;;;7.10;54.99;100065.94;4989911;28;19918;-76
2022/12/14 00:52:07;;;;;;;;;;;;;;;7.14;54.95;100066.94;4996527;28;19918;-76
2022/12/14 00:54:51;;;;;;;;;;;;;;;7.14;54.70;100073.13;4984528;28;19922;-76
2022/12/14 00:57:35;;;;;;;;;;;;;;;7.20;54.63;100061.09;4970991;28;19917;-77
2022/12/14 01:00:20;;;;;;;;;;;;;;;7.17;53.78;100060.88;5002930;28;20307;-77
2022/12/14 01:03:05;;;;;;;;;;;;;;;7.15;53.41;100063.13;5000717;28;19922;-77
2022/12/14 01:05:49;;;;;;;;;;;;;;;7.17;52.71;100060.88;4974449;28;19918;-76
2022/12/14 01:08:36;;;;;;;;;;;;;;;7.14;52.58;100061.50;4979284;28;20391;-75
2022/12/14 01:11:21;;;;;;;;;;;;;;;7.13;51.33;100065.31;4980846;28;19917;-76
2022/12/14 01:14:06;;;;;;;;;;;;;;;7.07;50.86;100061.94;4985445;28;19918;-76
2022/12/14 01:16:50;;;;;;;;;;;;;;;7.05;50.56;100057.97;4982663;28;19918;-77
2022/12/14 01:19:34;;;;;;;;;;;;;;;7.04;50.08;100057.16;4998117;28;20391;-76
2022/12/14 01:22:19;;;;;;;;;;;;;;;7.05;49.62;100061.47;5005462;28;20297;-76
2022/12/14 01:25:03;;;;;;;;;;;;;;;7.01;49.62;100059.69;4997646;28;19917;-76
2022/12/14 01:27:48;;;;;;;;;;;;;;;6.95;49.39;100056.31;4988314;28;19918;-76
2022/12/14 01:30:33;;;;;;;;;;;;;;;6.95;50.02;100056.31;4997604;28;19918;-77
2022/12/14 01:33:17;;;;;;;;;;;;;;;7.01;49.12;100065.09;5003157;28;19918;-76
2022/12/14 01:36:09;;;;;;;;;;;;;;;6.98;51.15;100054.88;5002575;28;20386;-76
2022/12/14 01:38:55;;;;;;;;;;;;;;;7.13;51.29;100049.09;4996862;28;19917;-75
2022/12/14 01:41:40;;;;;;;;;;;;;;;7.20;50.63;100049.47;4977476;28;19922;-75
2022/12/14 01:44:25;;;;;;;;;;;;;;;7.02;49.62;100053.97;4977969;28;19918;-76
2022/12/14 01:47:17;;;;;;;;;;;;;;;7.09;50.81;100058.94;4966567;28;19918;-76
2022/12/14 01:50:07;;;;;;;;;;;;;;;7.04;50.66;100048.25;4991234;28;19922;-77
2022/12/14 01:52:54;;;;;;;;;;;;;;;7.09;51.40;100042.72;4982882;28;19922;-77
2022/12/14 01:55:40;;;;;;;;;;;;;;;7.06;51.61;100048.75;4999698;28;19918;-76
2022/12/14 01:58:25;;;;;;;;;;;;;;;7.04;53.72;100051.75;5004158;28;19918;-77
2022/12/14 02:01:10;;;;;;;;;;;;;;;7.04;52.38;100040.94;5004500;28;19918;-76
2022/12/14 02:03:55;;;;;;;;;;;;;;;7.16;52.52;100038.47;4985376;28;19922;-76
2022/12/14 02:06:41;;;;;;;;;;;;;;;7.12;52.98;100036.69;4997528;28;19917;-76
2022/12/14 02:09:28;;;;;;;;;;;;;;;6.98;54.54;100030.56;4985344;28;19918;-76
2022/12/14 02:12:18;;;;;;;;;;;;;;;7.07;52.59;100028.69;4996455;28;19918;-76
2022/12/14 02:15:04;;;;;;;;;;;;;;;7.04;52.44;100029.31;4991183;28;19919;-75
2022/12/14 02:17:49;;;;;;;;;;;;;;;7.03;53.35;100023.13;5002636;28;19918;-76
2022/12/14 02:20:47;;;;;;;;;;;;;;;7.15;52.51;100026.06;4993556;28;19918;-76
2022/12/14 02:23:49;;;;;;;;;;;;;;;7.25;52.50;100014.19;4978303;28;19926;-75
2022/12/14 02:26:52;;;;;;;;;;;;;;;7.23;52.40;100000.19;4976271;28;19918;-78
2022/12/14 02:29:47;;;;;;;;;;;;;;;7.22;52.48;99993.16;4989653;28;20319;-77
2022/12/14 02:32:37;;;;;;;;;;;;;;;7.06;53.13;99992.00;5007214;28;19925;-77
2022/12/14 02:35:31;;;;;;;;;;;;;;;6.98;53.25;99980.00;5017672;28;20402;-76
2022/12/14 02:38:34;;;;;;;;;;;;;;;7.27;52.67;99972.19;5003936;28;19918;-77
2022/12/14 02:41:18;;;;;;;;;;;;;;;7.16;53.61;99968.16;4989554;28;19918;-76
2022/12/14 02:44:21;;;;;;;;;;;;;;;7.12;54.24;99972.59;4995549;28;19917;-78
2022/12/14 02:47:18;;;;;;;;;;;;;;;7.18;54.73;99965.97;5002412;28;19918;-78
2022/12/14 02:50:03;;;;;;;;;;;;;;;7.08;55.38;99960.03;4977862;28;19918;-77
2022/12/14 02:52:59;;;;;;;;;;;;;;;7.12;55.77;99950.19;4995746;28;19918;-76
2022/12/14 02:55:47;;;;;;;;;;;;;;;7.19;55.93;99959.44;4996145;28;19918;-76
2022/12/14 02:58:34;;;;;;;;;;;;;;;7.23;56.42;99957.72;4996381;28;19922;-76
2022/12/14 03:01:21;;;;;;;;;;;;;;;7.17;57.32;99958.16;4998223;28;19917;-77
2022/12/14 03:04:06;;;;;;;;;;;;;;;7.27;58.18;99963.28;4999724;28;20299;-76
2022/12/14 03:06:58;;;;;;;;;;;;;;;7.28;59.13;99954.88;4993359;28;19917;-76
2022/12/14 03:09:42;;;;;;;;;;;;;;;7.20;59.60;99961.06;4996633;28;19922;-76
2022/12/14 03:12:26;;;;;;;;;;;;;;;7.27;59.59;99964.09;4978093;28;19918;-76
2022/12/14 03:15:13;;;;;;;;;;;;;;;7.27;60.21;99953.28;4962871;28;19918;-76
2022/12/14 03:18:01;;;;;;;;;;;;;;;7.19;60.69;99947.84;4976910;28;19918;-76
2022/12/14 03:20:47;;;;;;;;;;;;;;;7.17;60.76;99950.03;4986924;28;19917;-75
2022/12/14 03:23:33;;;;;;;;;;;;;;;7.16;61.21;99945.75;4995610;28;20342;-77
2022/12/14 03:26:25;;;;;;;;;;;;;;;7.28;60.60;99935.94;5006594;28;19918;-79
2022/12/14 03:29:12;;;;;;;;;;;;;;;7.34;60.44;99933.91;5016986;28;19917;-77
2022/12/14 03:31:59;;;;;;;;;;;;;;;7.40;60.10;99940.78;5000533;28;19917;-78
2022/12/14 03:34:51;;;;;;;;;;;;;;;7.34;60.47;99931.19;4987979;28;19917;-76
2022/12/14 03:37:38;;;;;;;;;;;;;;;7.14;61.62;99920.94;4998249;28;19918;-78
2022/12/14 03:40:31;;;;;;;;;;;;;;;7.29;60.78;99920.53;4991125;28;19918;-77
2022/12/14 03:43:15;;;;;;;;;;;;;;;7.24;60.82;99924.16;4992007;28;19922;-76
2022/12/14 03:46:14;;;;;;;;;;;;;;;7.24;60.41;99918.75;5006741;28;19917;-77
2022/12/14 03:49:06;;;;;;;;;;;;;;;7.26;60.56;99924.63;5004883;28;19917;-77
2022/12/14 03:51:56;;;;;;;;;;;;;;;7.22;60.75;99917.47;5006444;28;19917;-76
2022/12/14 03:55:00;;;;;;;;;;;;;;;7.08;61.70;99912.16;4995854;28;19918;-76
2022/12/14 03:57:47;;;;;;;;;;;;;;;7.05;62.08;99912.00;4988737;28;19917;-76
2022/12/14 04:00:35;;;;;;;;;;;;;;;7.04;62.15;99905.78;4998512;28;19925;-76
2022/12/14 04:03:43;;;;;;;;;;;;;;;7.04;62.36;99905.78;4988240;28;19922;-77
2022/12/14 04:06:28;;;;;;;;;;;;;;;6.98;63.06;99896.22;5015327;28;19918;-77
2022/12/14 04:09:31;;;;;;;;;;;;;;;6.89;63.33;99895.38;4989072;28;19926;-76
2022/12/14 04:21:50;;;;;;;;;;;;;;;7.10;62.31;99877.53;4979547;28;20383;-77
2022/12/14 04:27:41;;;;;;;;;;;;;;;7.11;62.07;99872.91;4993088;28;19917;-75
2022/12/14 04:30:27;;;;;;;;;;;;;;;7.15;62.23;99868.47;4992450;28;19918;-76
2022/12/14 04:36:23;;;;;;;;;;;;;;;6.97;62.39;99869.50;5001973;28;19917;-76
2022/12/14 04:39:10;;;;;;;;;;;;;;;6.84;63.14;99865.78;4995339;28;19918;-77
2022/12/14 04:41:57;;;;;;;;;;;;;;;6.74;65.18;99864.16;4994316;28;19918;-76
2022/12/14 04:44:46;;;;;;;;;;;;;;;6.68;63.86;99870.81;4979321;28;20334;-76
2022/12/14 04:47:33;;;;;;;;;;;;;;;6.71;64.02;99867.47;5007319;28;19921;-76
2022/12/14 04:50:33;;;;;;;;;;;;;;;6.71;63.78;99859.38;5002948;28;19918;-76
2022/12/14 04:53:22;;;;;;;;;;;;;;;6.72;63.50;99860.16;5005088;28;19917;-76
2022/12/14 04:56:17;;;;;;;;;;;;;;;6.68;63.86;99873.50;4994325;28;19918;-75
2022/12/14 04:59:02;;;;;;;;;;;;;;;6.62;64.67;99869.34;5009287;28;19921;-76
2022/12/14 05:01:56;;;;;;;;;;;;;;;6.64;64.20;99869.84;5017796;28;19917;-78
2022/12/14 05:05:02;;;;;;;;;;;;;;;6.68;64.61;99862.69;5000287;28;19926;-76
2022/12/14 05:07:49;;;;;;;;;;;;;;;6.72;63.98;99863.66;4990986;28;19918;-76
2022/12/14 05:10:41;;;;;;;;;;;;;;;6.66;64.18;99870.31;5001061;28;20409;-77
2022/12/14 05:13:30;;;;;;;;;;;;;;;6.69;64.28;99869.69;5017571;28;20309;-75
2022/12/14 05:16:16;;;;;;;;;;;;;;;6.73;64.38;99857.16;5001787;28;20310;-77
2022/12/14 05:19:01;;;;;;;;;;;;;;;6.74;64.00;99858.75;5003369;28;20406;-76
2022/12/14 05:21:48;;;;;;;;;;;;;;;6.77;63.47;99851.94;5001298;28;19917;-76
2022/12/14 05:24:33;;;;;;;;;;;;;;;6.85;63.44;99859.28;4995581;28;19921;-77
2022/12/14 05:27:17;;;;;;;;;;;;;;;6.84;63.61;99855.00;4993927;28;19918;-76
2022/12/14 05:30:02;;;;;;;;;;;;;;;6.71;63.82;99853.16;4983409;28;19921;-75
2022/12/14 05:32:47;;;;;;;;;;;;;;;6.70;64.03;99857.78;4983898;28;19917;-76
2022/12/14 05:35:31;;;;;;;;;;;;;;;6.69;63.92;99853.50;5011922;28;19921;-78
2022/12/14 05:38:16;;;;;;;;;;;;;;;6.81;63.44;99848.28;4981791;28;19926;-76
2022/12/14 05:41:00;;;;;;;;;;;;;;;6.91;63.31;99844.50;4993839;28;19917;-76
2022/12/14 05:43:45;;;;;;;;;;;;;;;6.88;63.10;99839.75;4979808;28;19933;-77
2022/12/14 05:46:29;;;;;;;;;;;;;;;6.92;63.29;99842.59;4980484;28;20395;-78
2022/12/14 05:49:14;;;;;;;;;;;;;;;6.96;63.10;99841.66;4987396;28;19918;-78
2022/12/14 05:51:59;;;;;;;;;;;;;;;6.94;63.37;99843.09;4984245;28;19918;-76
2022/12/14 05:54:43;;;;;;;;;;;;;;;6.84;63.37;99847.69;5002111;28;20401;-77
2022/12/14 05:57:29;;;;;;;;;;;;;;;6.68;63.90;99845.69;5005875;28;19918;-76
2022/12/14 06:00:14;;;;;;;;;;;;;;;6.68;64.20;99843.78;4998654;28;19918;-76
2022/12/14 06:02:58;;;;;;;;;;;;;;;6.74;64.13;99839.84;5019538;28;20302;-77
2022/12/14 06:05:43;;;;;;;;;;;;;;;6.75;63.67;99844.16;4987807;28;19921;-77
2022/12/14 06:08:32;;;;;;;;;;;;;;;6.75;63.95;99837.94;4986153;28;19917;-76
2022/12/14 06:11:18;;;;;;;;;;;;;;;6.76;64.21;99839.50;4995303;28;19917;-76
2022/12/14 06:14:03;;;;;;;;;;;;;;;6.71;64.34;99847.75;5010471;28;19918;-76
2022/12/14 06:16:48;;;;;;;;;;;;;;;6.68;64.31;99851.88;4996729;28;20566;-76
2022/12/14 06:19:32;;;;;;;;;;;;;;;6.77;63.74;99841.91;4983396;28;19921;-76
2022/12/14 06:22:17;;;;;;;;;;;;;;;6.75;64.20;99843.34;4989255;28;19926;-76
2022/12/14 06:25:02;;;;;;;;;;;;;;;6.77;63.77;99841.91;4997022;28;20174;-77
2022/12/14 06:27:51;;;;;;;;;;;;;;;6.80;63.61;99841.31;4972299;28;19918;-76
2022/12/14 06:30:36;;;;;;;;;;;;;;;6.85;64.25;99843.88;4983359;28;19918;-76
2022/12/14 06:33:21;;;;;;;;;;;;;;;6.89;63.48;99838.63;4975324;28;19918;-77
2022/12/14 06:36:05;;;;;;;;;;;;;;;6.92;63.22;99848.00;4991598;28;19917;-76
2022/12/14 06:38:50;;;;;;;;;;;;;;;6.94;63.05;99851.22;4993740;28;19918;-77
2022/12/14 06:41:35;;;;;;;;;;;;;;;6.96;62.90;99854.41;4991467;28;19917;-78
2022/12/14 06:44:19;;;;;;;;;;;;;;;6.88;62.89;99858.66;5011447;28;19921;-80
2022/12/14 06:47:04;;;;;;;;;;;;;;;6.72;63.37;99860.16;5003002;28;19918;-78
2022/12/14 06:49:49;;;;;;;;;;;;;;;6.66;63.83;99867.59;4965874;28;19918;-78
2022/12/14 06:52:33;;;;;;;;;;;;;;;6.62;64.01;99863.94;4980158;28;19918;-78
2022/12/14 06:55:18;;;;;;;;;;;;;;;6.65;63.72;99871.44;4967149;28;19918;-77
2022/12/14 06:58:02;;;;;;;;;;;;;;;6.67;63.80;99866.50;4987794;28;19922;-76
2022/12/14 07:00:47;;;;;;;;;;;;;;;6.65;63.80;99870.63;4995689;28;19918;-78
2022/12/14 07:03:31;;;;;;;;;;;;;;;6.61;64.15;99859.63;4977881;28;19933;-80
2022/12/14 07:06:16;;;;;;;;;;;;;;;6.66;63.47;99853.28;5027635;23;19926;-77
2022/12/14 07:09:01;;;;;;;;;;;;;;;6.60;63.77;99859.97;4978422;28;20338;-77
2022/12/14 07:11:48;;;;;;;;;;;;;;;6.60;63.75;99859.97;4986529;28;19917;-78
2022/12/14 07:14:33;;;;;;;;;;;;;;;6.52;63.78;99861.50;5008947;28;20311;-77
2022/12/14 07:17:17;;;;;;;;;;;;;;;6.53;64.28;99879.28;4994260;28;19922;-78
2022/12/14 07:20:03;;;;;;;;;;;;;;;6.47;64.71;99904.03;4981033;28;19918;-76
2022/12/14 07:22:48;;;;;;;;;;;;;;;6.39;64.83;99881.28;4980677;28;19922;-78
2022/12/14 07:25:32;;;;;;;;;;;;;;;6.50;64.71;99862.91;4994062;28;19917;-79
2022/12/14 07:28:17;;;;;;;;;;;;;;;6.52;64.32;99866.88;4967389;28;19926;-77
2022/12/14 07:31:02;;;;;;;;;;;;;;;6.38;64.63;99875.06;4961667;28;19922;-76
2022/12/14 07:33:47;;;;;;;;;;;;;;;6.23;65.38;99869.25;4964091;28;19918;-75
2022/12/14 07:36:31;;;;;;;;;;;;;;;6.31;64.88;99863.09;4985648;28;19918;-75
2022/12/14 07:39:16;;;;;;;;;;;;;;;6.25;65.25;99875.13;4988185;28;19922;-76
2022/12/14 07:42:01;;;;;;;;;;;;;;;6.15;65.76;99872.66;4980748;28;19917;-75
2022/12/14 07:44:47;;;;;;;;;;;;;;;6.13;65.63;99874.88;4977361;28;20399;-76
2022/12/14 07:47:31;;;;;;;;;;;;;;;6.26;65.29;99872.13;4973631;28;19937;-75
2022/12/14 07:50:15;;;;;;;;;;;;;;;6.19;65.72;99876.38;4971382;28;19918;-76
2022/12/14 07:53:00;;;;;;;;;;;;;;;6.15;65.59;99872.66;4976720;28;19918;-76
2022/12/14 07:55:44;;;;;;;;;;;;;;;6.19;65.34;99868.28;4954719;29;19918;-76
2022/12/14 07:58:30;;;;;;;;;;;;;;;6.11;65.61;99868.97;4965269;28;19919;-76
2022/12/14 08:01:14;;;;;;;;;;;;;;;6.19;65.40;99862.88;4953186;28;19918;-76
2022/12/14 08:04:02;;;;;;;;;;;;;;;6.15;65.83;99870.75;4976598;28;19930;-76
2022/12/14 08:06:47;;;;;;;;;;;;;;;6.24;65.16;99860.06;4968551;28;19918;-75
2022/12/14 08:09:31;;;;;;;;;;;;;;;6.35;64.25;99872.16;4950505;28;19926;-76
2022/12/14 08:12:15;;;;;;;;;;;;;;;6.40;63.45;99880.16;4955340;28;19919;-76
2022/12/14 08:15:00;;;;;;;;;;;;;;;6.33;62.25;99887.91;4960342;28;20315;-78
2022/12/14 08:17:44;;;;;;;;;;;;;;;6.32;61.98;99880.91;4964464;28;20387;-76
2022/12/14 08:20:29;;;;;;;;;;;;;;;6.30;61.97;99873.09;4964379;28;20400;-76
2022/12/14 08:23:13;;;;;;;;;;;;;;;6.35;62.42;99896.47;4986886;28;19921;-78
2022/12/14 08:25:58;;;;;;;;;;;;;;;6.36;62.75;99898.06;4971313;28;19918;-79
2022/12/14 08:28:43;;;;;;;;;;;;;;;6.36;62.63;99900.78;4937907;29;20300;-78
2022/12/14 08:31:27;;;;;;;;;;;;;;;6.42;62.90;99886.84;4968068;28;19918;-77
2022/12/14 08:34:12;;;;;;;;;;;;;;;6.42;62.53;99884.16;4950831;28;19918;-77
2022/12/14 08:36:56;;;;;;;;;;;;;;;6.40;62.34;99885.53;4977687;28;19917;-77
2022/12/14 08:39:40;;;;;;;;;;;;;;;6.38;62.09;99899.38;4970040;28;19918;-78
2022/12/14 08:42:25;;;;;;;;;;;;;;;6.34;62.20;99889.50;4974635;28;20295;-77
2022/12/14 08:45:09;;;;;;;;;;;;;;;6.27;61.95;99886.41;4980588;28;19918;-78
2022/12/14 08:47:58;;;;;;;;;;;;;;;6.35;61.32;99891.06;4959978;28;19918;-79
2022/12/14 08:50:42;;;;;;;;;;;;;;;6.33;61.33;99890.59;4963920;28;19918;-79
2022/12/14 08:53:27;;;;;;;;;;;;;;;6.32;61.00;99897.09;4978128;28;19918;-77
2022/12/14 08:56:12;;;;;;;;;;;;;;;6.32;61.12;99907.91;4975407;28;19918;-77
2022/12/14 08:58:57;;;;;;;;;;;;;;;6.41;60.22;99914.94;4968331;28;19918;-78
2022/12/14 09:01:41;;;;;;;;;;;;;;;6.45;59.97;99917.81;4968391;28;19918;-77
2022/12/14 09:04:26;;;;;;;;;;;;;;;6.43;59.71;99906.56;4989915;28;20395;-78
2022/12/14 09:07:10;;;;;;;;;;;;;;;6.52;59.72;99904.69;4992606;28;19922;-78
2022/12/14 09:09:55;;;;;;;;;;;;;;;6.57;59.16;99912.69;4978475;28;19918;-78
2022/12/14 09:12:39;;;;;;;;;;;;;;;6.53;58.99;99914.41;4953124;28;19918;-78
2022/12/14 09:15:24;;;;;;;;;;;;;;;6.49;59.75;99921.53;4974098;28;19918;-78
2022/12/14 09:18:08;;;;;;;;;;;;;;;6.46;59.82;99919.44;4986269;28;20306;-79
2022/12/14 09:20:54;;;;;;;;;;;;;;;6.56;59.92;99915.69;4976600;28;19922;-78
2022/12/14 09:23:39;;;;;;;;;;;;;;;6.65;60.31;99911.16;4978006;28;19926;-78
2022/12/14 09:26:24;;;;;;;;;;;;;;;6.70;60.74;99913.72;4993061;28;19917;-78
2022/12/14 09:29:12;;;;;;;;;;;;;;;6.68;60.96;99911.31;4978154;28;19922;-78
2022/12/14 09:31:56;;;;;;;;;;;;;;;6.74;60.74;99906.59;4982077;28;19918;-79
2022/12/14 09:34:41;;;;;;;;;;;;;;;6.77;61.13;99912.16;4961367;28;19918;-78
2022/12/14 09:37:25;;;;;;;;;;;;;;;6.82;61.00;99909.31;4982583;28;19917;-79
2022/12/14 09:40:10;;;;;;;;;;;;;;;6.82;61.56;99906.63;4967824;28;19930;-78
2022/12/14 09:43:00;;;;;;;;;;;;;;;6.88;62.12;99908.09;4965654;28;19929;-79
2022/12/14 09:45:53;;;;;;;;;;;;;;;6.84;62.19;99900.94;4963980;28;19919;-78
2022/12/14 09:48:40;;;;;;;;;;;;;;;6.89;62.14;99892.69;4976751;28;19918;-79
2022/12/14 09:51:29;;;;;;;;;;;;;;;6.90;62.69;99890.78;4963494;28;20295;-79
2022/12/14 09:54:18;;;;;;;;;;;;;;;6.87;63.28;99875.97;4966970;28;20383;-79
2022/12/14 09:57:08;;;;;;;;;;;;;;;6.95;62.78;99885.25;4946819;29;19919;-79
2022/12/14 09:59:53;;;;;;;;;;;;;;;6.91;62.43;99879.63;4946830;28;19919;-79
2022/12/14 10:02:49;;;;;;;;;;;;;;;6.95;62.48;99880.63;4944375;28;19922;-80
2022/12/14 10:05:45;;;;;;;;;;;;;;;6.85;62.12;99879.00;4943989;29;19919;-79
2022/12/14 10:08:53;;;;;;;;;;;;;;;6.94;62.97;99886.34;4957284;29;19918;-78
2022/12/14 10:11:51;;;;;;;;;;;;;;;7.02;62.90;99882.88;4942531;29;20536;-79
2022/12/14 10:14:44;;;;;;;;;;;;;;;7.02;62.72;99872.06;4957782;28;19918;-79
2022/12/14 10:17:49;;;;;;;;;;;;;;;7.00;63.15;99871.59;4963930;28;19918;-80
2022/12/14 10:20:34;;;;;;;;;;;;;;;7.02;61.70;99867.44;4981480;28;19918;-80
2022/12/14 10:23:20;;;;;;;;;;;;;;;6.97;61.77;99867.59;4976014;28;19926;-79
2022/12/14 10:26:10;;;;;;;;;;;;;;;6.94;61.27;99862.81;4966616;28;20295;-78
2022/12/14 10:28:58;;;;;;;;;;;;;;;6.95;61.64;99858.22;4965227;28;20338;-80
2022/12/14 10:31:50;;;;;;;;;;;;;;;6.91;62.21;99857.25;4963338;28;20303;-78
2022/12/14 10:34:38;;;;;;;;;;;;;;;6.94;62.30;99848.50;4963003;28;19918;-79
2022/12/14 10:37:31;;;;;;;;;;;;;;;6.99;61.69;99853.78;4964738;28;19918;-78
2022/12/14 10:40:15;;;;;;;;;;;;;;;7.01;62.06;99844.22;4966318;28;19918;-78
2022/12/14 10:43:03;;;;;;;;;;;;;;;7.09;61.37;99842.69;4967884;28;20291;-79
2022/12/14 10:45:48;;;;;;;;;;;;;;;7.11;62.06;99826.97;4962171;28;19919;-79
2022/12/14 10:48:36;;;;;;;;;;;;;;;7.16;61.59;99837.63;4986224;28;19918;-78
2022/12/14 10:51:40;;;;;;;;;;;;;;;7.15;60.54;99830.63;4960567;28;19918;-80
2022/12/14 10:54:25;;;;;;;;;;;;;;;7.13;59.10;99817.41;4949238;28;19919;-79
2022/12/14 10:57:17;;;;;;;;;;;;;;;7.16;58.41;99814.06;4959442;28;20531;-77
2022/12/14 11:00:08;;;;;;;;;;;;;;;7.21;59.15;99807.75;4956164;28;19918;-77
2022/12/14 11:02:54;;;;;;;;;;;;;;;7.27;60.40;99809.16;4954633;28;20375;-79
2022/12/14 11:05:42;;;;;;;;;;;;;;;7.31;60.41;99797.41;4960660;28;20392;-78
2022/12/14 11:08:46;;;;;;;;;;;;;;;7.36;61.16;99798.38;4950166;28;19942;-77
2022/12/14 11:11:31;;;;;;;;;;;;;;;7.36;61.22;99798.38;4949089;28;19926;-78
2022/12/14 11:14:17;;;;;;;;;;;;;;;7.38;60.65;99796.94;4955682;28;19918;-78
2022/12/14 11:17:02;;;;;;;;;;;;;;;7.46;59.34;99801.56;4960420;28;19918;-77
2022/12/14 11:20:01;;;;;;;;;;;;;;;7.52;58.84;99794.06;4951291;28;20310;-79
2022/12/14 11:22:49;;;;;;;;;;;;;;;7.51;57.83;99792.50;4967742;28;19922;-77
2022/12/14 11:25:34;;;;;;;;;;;;;;;7.52;57.44;99791.38;4964275;28;20311;-77
2022/12/14 11:28:33;;;;;;;;;;;;;;;7.56;57.57;99789.66;4994247;28;19922;-78
2022/12/14 11:31:23;;;;;;;;;;;;;;;7.49;56.06;99787.41;4964586;28;20399;-77
2022/12/14 11:34:26;;;;;;;;;;;;;;;7.50;55.59;99780.09;4952274;28;19918;-78
2022/12/14 11:37:28;;;;;;;;;;;;;;;7.62;54.78;99781.03;4971827;28;19918;-80
2022/12/14 11:40:24;;;;;;;;;;;;;;;7.67;55.28;99778.16;4962468;28;19918;-79
2022/12/14 11:43:20;;;;;;;;;;;;;;;7.54;54.35;99762.91;4960172;28;19918;-79
2022/12/14 11:46:05;;;;;;;;;;;;;;;7.57;55.09;99769.56;4986508;28;19918;-80
2022/12/14 11:48:50;;;;;;;;;;;;;;;7.60;55.37;99756.22;4983466;28;19918;-81
2022/12/14 11:51:35;;;;;;;;;;;;;;;7.68;56.17;99754.63;4983204;28;20315;-80
2022/12/14 11:54:19;;;;;;;;;;;;;;;7.69;56.24;99753.50;4973072;28;19918;-81
2022/12/14 11:57:13;;;;;;;;;;;;;;;7.72;55.84;99745.53;4980703;28;19917;-79
2022/12/14 12:00:05;;;;;;;;;;;;;;;7.73;56.18;99741.72;4983733;28;20390;-80
2022/12/14 12:03:22;;;;;;;;;;;;;;;7.76;55.85;99732.19;4956004;28;19919;-80
2022/12/14 12:06:13;;;;;;;;;;;;;;;7.84;55.58;99734.06;4959624;28;20326;-80
2022/12/14 12:08:59;;;;;;;;;;;;;;;7.86;55.41;99731.06;4984556;28;19918;-80
2022/12/14 12:11:44;;;;;;;;;;;;;;;8.06;55.23;99730.38;4966967;28;19918;-78
2022/12/14 12:14:33;;;;;;;;;;;;;;;8.14;54.45;99733.06;4954561;28;19922;-78
2022/12/14 12:17:18;;;;;;;;;;;;;;;8.09;54.31;99743.25;4969936;28;19923;-78
2022/12/14 12:20:14;;;;;;;;;;;;;;;7.92;54.71;99746.03;4982285;28;19917;-82
2022/12/14 12:23:04;;;;;;;;;;;;;;;7.68;55.45;99755.41;4958419;28;19922;-80
2022/12/14 12:25:51;;;;;;;;;;;;;;;7.74;55.64;99748.72;4959758;28;19927;-78
2022/12/14 12:28:41;;;;;;;;;;;;;;;7.99;54.52;99749.00;4948857;28;20315;-77
2022/12/14 12:31:37;;;;;;;;;;;;;;;8.25;54.36;99754.38;4944785;28;19923;-77
2022/12/14 12:34:33;;;;;;;;;;;;;;;8.32;53.52;99755.50;4948373;28;20311;-78
2022/12/14 12:37:20;;;;;;;;;;;;;;;8.18;54.37;99754.09;4970834;28;20210;-79
2022/12/14 12:49:14;;;;;;;;;;;;;;;8.36;54.93;99763.78;5039277;28;19910;-86
2022/12/14 12:52:02;;;;;;;;;;;;;;;8.44;55.14;99762.94;5039043;28;19910;-83
2022/12/14 12:57:50;;;;;;;;;;;;;;;8.85;53.51;99757.66;5882550;23;19910;-86
2022/12/14 13:00:32;;;;;;;;;;;;;;;8.86;53.55;99747.63;5444259;23;19937;-85
2022/12/14 13:03:22;;;;;;;;;;;;;;;8.73;53.57;99743.22;4985023;28;19934;-87
2022/12/14 13:06:26;;;;;;;;;;;;;;;8.71;53.51;99729.19;5145641;23;19934;-86
2022/12/14 13:15:19;;;;;;;;;;;;;;;8.77;53.03;99712.44;5049801;23;19933;-86
2022/12/14 13:21:33;;;;;;;;;;;;;;;8.87;52.60;99712.06;5092986;23;19925;-86
2022/12/14 13:24:25;;;;;;;;;;;;;;;8.82;53.38;99717.66;5007559;28;19925;-86
2022/12/14 13:30:32;;;;;;;;;;;;;;;8.87;53.29;99711.25;5024134;23;19945;-85
2022/12/14 13:33:54;;;;;;;;;;;;;;;8.99;52.23;99703.19;5001933;23;19930;-85
2022/12/14 13:37:16;;;;;;;;;;;;;;;9.03;52.17;99693.28;5035582;23;19945;-85
2022/12/14 13:40:20;;;;;;;;;;;;;;;9.01;51.85;99695.53;4991691;28;19930;-82
2022/12/14 13:43:09;;;;;;;;;;;;;;;9.02;52.65;99697.94;5003497;28;19926;-83
2022/12/14 13:46:03;;;;;;;;;;;;;;;8.86;51.10;99702.31;5000870;28;19930;-83
2022/12/14 13:48:50;;;;;;;;;;;;;;;8.53;52.31;99702.19;5002523;23;19926;-82
2022/12/14 13:51:39;;;;;;;;;;;;;;;8.49;53.22;99695.81;4975236;28;20438;-81
2022/12/14 13:54:27;;;;;;;;;;;;;;;8.63;53.90;99697.53;4964749;28;19918;-82
2022/12/14 13:57:19;;;;;;;;;;;;;;;8.67;53.32;99693.03;4980569;28;20291;-82
2022/12/14 14:00:04;;;;;;;;;;;;;;;8.70;53.10;99692.38;4971444;28;19922;-82
2022/12/14 14:02:56;;;;;;;;;;;;;;;8.82;52.79;99687.06;4958244;29;19919;-82
2022/12/14 14:05:44;;;;;;;;;;;;;;;8.61;53.76;99681.59;4960694;28;19922;-82
2022/12/14 14:08:32;;;;;;;;;;;;;;;8.52;54.26;99675.44;4932357;29;20400;-82
2022/12/14 14:11:22;;;;;;;;;;;;;;;8.60;54.83;99685.41;4965192;28;20391;-82
2022/12/14 14:14:25;;;;;;;;;;;;;;;8.63;55.05;99686.69;4957593;28;19918;-82
2022/12/14 14:17:25;;;;;;;;;;;;;;;8.55;55.44;99683.69;4958303;28;19919;-82
2022/12/14 14:20:28;;;;;;;;;;;;;;;8.46;55.46;99679.44;4957604;28;20335;-82
2022/12/14 14:23:13;;;;;;;;;;;;;;;8.50;55.25;99688.50;4971274;28;19918;-82
2022/12/14 14:26:16;;;;;;;;;;;;;;;8.48;55.77;99691.53;4961544;28;19923;-81
2022/12/14 14:29:20;;;;;;;;;;;;;;;8.50;56.06;99696.63;4941262;28;19919;-82
2022/12/14 14:32:23;;;;;;;;;;;;;;;8.54;55.81;99702.97;4942394;29;19923;-81
2022/12/14 14:35:21;;;;;;;;;;;;;;;8.57;56.37;99702.34;4934244;29;19919;-83
2022/12/14 14:38:21;;;;;;;;;;;;;;;8.51;56.37;99709.84;4918106;29;19919;-82
2022/12/14 14:41:10;;;;;;;;;;;;;;;8.41;56.02;99707.50;4921698;29;20393;-82
2022/12/14 14:43:57;;;;;;;;;;;;;;;8.38;56.96;99702.72;4933107;29;19923;-82
2022/12/14 14:46:44;;;;;;;;;;;;;;;8.36;56.72;99694.16;4938083;29;19919;-82
2022/12/14 14:49:32;;;;;;;;;;;;;;;8.33;57.16;99696.72;4921622;29;19922;-82
2022/12/14 14:52:52;;;;;;;;;;;;;;;8.27;56.74;99679.03;4947565;29;20388;-82
2022/12/14 14:55:37;;;;;;;;;;;;;;;8.23;57.44;99675.38;4932393;29;19918;-82
2022/12/14 14:58:21;;;;;;;;;;;;;;;8.02;57.32;99659.06;4961109;28;19919;-82
2022/12/14 15:01:19;;;;;;;;;;;;;;;8.08;58.33;99671.28;4957308;28;19918;-82
2022/12/14 15:04:05;;;;;;;;;;;;;;;8.07;58.23;99667.78;4957722;29;19922;-82
2022/12/14 15:06:52;;;;;;;;;;;;;;;8.12;57.83;99669.53;4945332;29;19918;-82
2022/12/14 15:09:43;;;;;;;;;;;;;;;8.08;58.05;99665.84;4959264;28;20149;-82
2022/12/14 15:12:33;;;;;;;;;;;;;;;8.11;57.58;99662.53;4931603;29;19918;-82
2022/12/14 15:15:20;;;;;;;;;;;;;;;8.17;57.33;99658.53;4936199;29;20396;-82
2022/12/14 15:18:22;;;;;;;;;;;;;;;8.08;57.88;99661.22;4948704;28;20379;-82
2022/12/14 15:21:10;;;;;;;;;;;;;;;8.05;58.01;99670.03;4942827;29;19919;-82
2022/12/14 15:23:56;;;;;;;;;;;;;;;8.14;57.91;99672.69;4936057;29;19931;-84
2022/12/14 15:26:44;;;;;;;;;;;;;;;8.20;57.15;99670.59;4934927;29;19919;-81
2022/12/14 15:29:29;;;;;;;;;;;;;;;8.13;57.61;99668.38;4939695;29;19919;-82